Time;durP1;ratioP1;P1;durP2;ratioP2;P2;SDS_P1;SDS_P2;PMS_P1;PMS_P2;Temp;Humidity;BMP_temperature;BMP_pressure;BME280_temperature;BME280_humidity;BME280_pressure;Samples;Min_cycle;Max_cycle;Signal;HPM_P1;HPM_P2
2022/03/12 00:00:00;;;;;;;15.32;11.57;;;;;;;19.19;40.04;101800.31;5023332;28;20049;-46
2022/03/12 00:02:29;;;;;;;13.55;12.15;;;;;;;19.17;40.14;101807.56;5002718;28;20474;-44
2022/03/12 00:04:55;;;;;;;14.98;12.68;;;;;;;19.18;40.11;101801.28;5009430;28;20041;-40
2022/03/12 00:07:20;;;;;;;14.75;12.02;;;;;;;19.18;40.09;101804.75;5006032;28;20028;-42
2022/03/12 00:09:46;;;;;;;13.77;11.88;;;;;;;19.18;39.85;101803.94;5007695;28;20029;-43
2022/03/12 00:12:13;;;;;;;13.30;11.82;;;;;;;19.19;39.90;101798.50;5009760;28;20053;-43
2022/03/12 00:14:44;;;;;;;11.55;10.35;;;;;;;19.19;39.76;101803.78;5007320;28;20029;-50
2022/03/12 00:17:12;;;;;;;14.10;10.93;;;;;;;19.19;39.62;101797.66;5008501;28;20049;-44
2022/03/12 00:19:40;;;;;;;13.07;10.88;;;;;;;19.18;39.75;101799.47;5006098;28;20409;-44
2022/03/12 00:22:08;;;;;;;11.07;9.60;;;;;;;19.20;39.61;101801.97;5007601;28;20037;-44
2022/03/12 00:24:34;;;;;;;11.95;10.73;;;;;;;19.19;39.60;101801.13;5006993;28;20038;-44
2022/03/12 00:27:01;;;;;;;12.70;9.25;;;;;;;19.19;39.50;101801.13;5022610;28;20485;-41
2022/03/12 00:29:26;;;;;;;12.95;9.80;;;;;;;19.19;39.28;101798.50;5007132;28;20508;-46
2022/03/12 00:31:53;;;;;;;16.05;10.52;;;;;;;19.18;39.38;101796.84;5008807;28;20029;-40
2022/03/12 00:34:19;;;;;;;10.40;8.73;;;;;;;19.17;39.37;101799.66;5024254;28;20032;-49
2022/03/12 00:36:46;;;;;;;10.48;7.82;;;;;;;19.15;39.24;101799.00;5006764;28;20029;-46
2022/03/12 00:39:14;;;;;;;10.60;9.50;;;;;;;19.13;39.31;101808.91;5006552;28;20367;-43
2022/03/12 00:41:39;;;;;;;11.15;8.25;;;;;;;19.10;39.19;101802.13;5008770;28;20413;-41
2022/03/12 00:44:05;;;;;;;10.90;8.13;;;;;;;19.09;39.26;101802.31;5008306;28;20037;-45
2022/03/12 00:46:31;;;;;;;9.75;8.75;;;;;;;19.08;39.26;101809.41;5006163;28;20651;-44
2022/03/12 00:48:57;;;;;;;9.88;8.48;;;;;;;19.06;39.28;101806.09;5008955;28;20129;-42
2022/03/12 00:51:23;;;;;;;9.68;8.20;;;;;;;19.05;39.18;101808.91;5007534;28;20069;-40
2022/03/12 00:53:48;;;;;;;10.75;9.00;;;;;;;19.03;39.25;101805.59;5006050;28;20133;-43
2022/03/12 00:56:14;;;;;;;11.05;8.60;;;;;;;19.02;39.00;101802.16;5007397;28;20354;-45
2022/03/12 00:58:45;;;;;;;8.50;7.40;;;;;;;19.02;39.12;101812.72;5007238;28;20519;-43
2022/03/12 01:01:11;;;;;;;10.75;7.90;;;;;;;19.01;39.11;101815.50;5006827;28;20383;-44
2022/03/12 01:03:37;;;;;;;9.50;8.13;;;;;;;19.00;39.06;101808.59;5007879;28;20798;-44
2022/03/12 01:06:05;;;;;;;9.15;7.13;;;;;;;18.98;39.18;101814.03;5006223;28;20038;-48
2022/03/12 01:08:33;;;;;;;10.48;8.27;;;;;;;18.98;39.19;101810.56;5007938;28;20389;-40
2022/03/12 01:11:00;;;;;;;10.07;8.27;;;;;;;18.96;39.24;101805.44;5006769;28;20034;-45
2022/03/12 01:13:28;;;;;;;10.00;8.23;;;;;;;18.97;39.29;101814.19;5007967;28;20042;-44
2022/03/12 01:15:53;;;;;;;8.77;7.88;;;;;;;18.96;39.18;101815.19;5006528;28;20076;-45
2022/03/12 01:18:21;;;;;;;8.88;7.72;;;;;;;18.95;39.25;101809.09;5006894;28;20030;-45
2022/03/12 01:20:48;;;;;;;8.85;7.40;;;;;;;18.94;39.26;101811.88;5006089;28;20420;-41
2022/03/12 01:23:16;;;;;;;8.52;6.57;;;;;;;18.94;38.97;101804.78;5008205;28;20108;-50
2022/03/12 01:25:44;;;;;;;8.73;7.53;;;;;;;18.94;39.10;101806.59;5003668;28;20033;-47
2022/03/12 01:28:11;;;;;;;8.73;7.35;;;;;;;18.93;39.22;101799.69;5007219;28;20269;-45
2022/03/12 01:30:37;;;;;;;7.60;6.70;;;;;;;18.92;39.11;101801.50;5007338;28;20061;-46
2022/03/12 01:33:04;;;;;;;7.10;6.00;;;;;;;18.91;39.09;101807.75;5007138;28;20029;-47
2022/03/12 01:35:29;;;;;;;8.02;6.45;;;;;;;18.88;38.97;101808.13;5004820;28;20049;-46
2022/03/12 01:37:55;;;;;;;6.50;5.50;;;;;;;18.86;38.85;101803.00;5006437;28;20026;-50
2022/03/12 01:40:21;;;;;;;7.97;6.72;;;;;;;18.85;38.95;101809.28;5006154;28;20038;-44
2022/03/12 01:42:47;;;;;;;8.02;6.68;;;;;;;18.85;38.89;101805.81;5007443;28;20021;-47
2022/03/12 01:45:22;;;;;;;7.50;6.70;;;;;;;18.82;38.85;101806.97;5005961;28;20045;-42
2022/03/12 01:47:47;;;;;;;6.95;5.35;;;;;;;18.81;38.82;101805.31;5021450;28;20139;-43
2022/03/12 01:50:18;;;;;;;7.22;6.50;;;;;;;18.81;38.97;101807.97;5021132;28;20065;-45
2022/03/12 01:52:43;;;;;;;8.00;5.47;;;;;;;18.82;38.85;101806.16;5004392;28;20030;-47
2022/03/12 01:55:09;;;;;;;7.05;6.18;;;;;;;18.80;38.65;101798.38;5006141;28;20037;-44
2022/03/12 01:57:35;;;;;;;7.70;5.82;;;;;;;18.80;38.78;101806.31;5006794;28;20033;-47
2022/03/12 02:00:00;;;;;;;8.23;6.93;;;;;;;18.79;38.80;101804.66;5005999;28;20446;-49
2022/03/12 02:02:26;;;;;;;7.07;5.93;;;;;;;18.78;38.75;101805.66;4998479;28;20033;-46
2022/03/12 02:04:52;;;;;;;9.18;6.45;;;;;;;18.77;38.67;101806.63;5005384;28;20044;-43
2022/03/12 02:07:19;;;;;;;8.32;6.32;;;;;;;18.76;38.61;101799.72;5004227;28;20382;-48
2022/03/12 02:09:46;;;;;;;7.90;6.53;;;;;;;18.76;38.68;101794.44;5002853;28;20037;-46
2022/03/12 02:12:12;;;;;;;6.72;5.32;;;;;;;18.76;38.60;101805.00;5144364;23;20053;-47
2022/03/12 02:14:37;;;;;;;7.82;6.40;;;;;;;18.77;38.61;101805.81;4987419;28;20030;-41
2022/03/12 02:17:11;;;;;;;9.10;6.85;;;;;;;18.75;38.53;101805.97;4987418;28;20030;-43
2022/03/12 02:19:39;;;;;;;8.38;7.00;;;;;;;18.78;38.53;101808.28;4987441;28;20445;-45
2022/03/12 02:22:07;;;;;;;9.15;7.25;;;;;;;18.78;38.49;101803.00;4987360;28;20037;-48
2022/03/12 02:24:35;;;;;;;7.28;6.13;;;;;;;18.79;38.32;101801.19;4987561;28;20061;-45
2022/03/12 02:27:03;;;;;;;9.63;6.88;;;;;;;18.80;38.32;101806.31;4987509;28;20776;-46
2022/03/12 02:29:29;;;;;;;8.45;6.57;;;;;;;18.81;38.24;101804.50;4987486;28;20198;-48
2022/03/12 02:32:03;;;;;;;8.25;6.57;;;;;;;18.79;38.32;101799.38;4987617;28;20034;-43
2022/03/12 02:34:34;;;;;;;7.68;6.60;;;;;;;18.80;38.32;101793.09;5002230;28;20101;-47
2022/03/12 02:37:00;;;;;;;7.72;6.43;;;;;;;18.81;38.29;101793.94;5002177;28;20030;-47
2022/03/12 02:39:28;;;;;;;8.82;6.63;;;;;;;18.80;38.33;101797.56;4987514;28;20367;-43
2022/03/12 02:41:55;;;;;;;7.53;6.50;;;;;;;18.78;38.22;101795.09;4987506;28;20031;-41
2022/03/12 02:44:27;;;;;;;7.90;5.40;;;;;;;18.77;38.25;101801.34;4987221;28;20029;-49
2022/03/12 02:47:14;;;;;;;8.43;5.75;;;;;;;18.71;38.21;101802.03;5001983;28;20559;-42
2022/03/12 02:49:44;;;;;;;7.05;5.57;;;;;;;18.70;38.25;101802.19;4987530;28;20456;-47
2022/03/12 02:52:10;;;;;;;5.72;4.82;;;;;;;18.69;38.26;101803.16;4987444;28;20393;-41
2022/03/12 02:54:36;;;;;;;6.72;5.50;;;;;;;18.66;38.21;101809.59;4987436;28;20030;-42
2022/03/12 02:57:03;;;;;;;8.55;6.13;;;;;;;18.65;38.28;101807.94;4986944;28;20516;-48
2022/03/12 02:59:29;;;;;;;6.47;5.78;;;;;;;18.66;38.18;101806.13;4985863;28;20068;-44
2022/03/12 03:01:57;;;;;;;7.70;5.95;;;;;;;18.64;38.24;101808.13;4987254;28;20486;-46
2022/03/12 03:04:24;;;;;;;6.38;5.10;;;;;;;18.62;38.15;101810.91;4987280;28;20121;-44
2022/03/12 03:06:50;;;;;;;7.65;5.25;;;;;;;18.62;38.28;101810.91;5002003;28;20077;-41
2022/03/12 03:09:16;;;;;;;5.57;4.93;;;;;;;18.60;38.17;101812.91;4987056;28;20034;-42
2022/03/12 03:11:43;;;;;;;6.97;5.95;;;;;;;18.60;38.23;101810.25;4986657;28;20027;-46
2022/03/12 03:14:10;;;;;;;7.13;5.32;;;;;;;18.59;38.14;101805.94;5002808;28;20367;-48
2022/03/12 03:16:36;;;;;;;5.68;5.05;;;;;;;18.58;38.00;101805.09;5005504;28;20065;-41
2022/03/12 03:19:02;;;;;;;5.68;4.65;;;;;;;18.57;38.10;101807.91;4990534;28;20081;-44
2022/03/12 03:21:28;;;;;;;8.07;5.90;;;;;;;18.58;38.17;101809.56;5005439;28;20258;-44
2022/03/12 03:23:54;;;;;;;6.65;5.28;;;;;;;18.58;38.15;101809.56;4990432;28;20113;-43
2022/03/12 03:26:40;;;;;;;7.75;5.95;;;;;;;18.54;38.12;101806.44;4990440;28;20462;-42
2022/03/12 03:29:06;;;;;;;7.38;5.50;;;;;;;18.55;38.18;101809.88;4982785;28;20359;-45
2022/03/12 03:31:31;;;;;;;6.07;5.05;;;;;;;18.55;38.24;101804.63;4990462;28;20417;-49
2022/03/12 03:33:57;;;;;;;6.72;6.03;;;;;;;18.56;38.19;101800.97;4990590;28;20026;-52
2022/03/12 03:36:23;;;;;;;8.30;5.75;;;;;;;18.55;38.03;101799.34;4990348;28;20497;-45
2022/03/12 03:38:48;;;;;;;7.78;5.43;;;;;;;18.55;38.16;101804.63;4990481;28;20146;-47
2022/03/12 03:41:14;;;;;;;7.95;5.63;;;;;;;18.54;38.05;101797.69;5005092;28;20480;-42
2022/03/12 03:43:45;;;;;;;7.72;5.28;;;;;;;18.52;38.09;101808.41;4990465;28;20511;-50
2022/03/12 03:46:10;;;;;;;6.18;5.05;;;;;;;18.52;38.08;101804.94;4990143;28;20022;-49
2022/03/12 03:48:38;;;;;;;8.00;5.35;;;;;;;18.49;38.06;101805.25;4989975;28;20425;-46
2022/03/12 03:51:04;;;;;;;6.53;4.75;;;;;;;18.48;38.14;101799.16;4988915;28;20023;-46
2022/03/12 03:53:30;;;;;;;7.50;4.93;;;;;;;18.49;38.05;101800.00;4990171;28;20513;-42
2022/03/12 03:55:57;;;;;;;6.43;5.00;;;;;;;18.47;38.05;101805.44;4990050;28;20118;-45
2022/03/12 03:58:24;;;;;;;5.53;4.50;;;;;;;18.46;38.00;101808.22;4989750;28;20045;-50
2022/03/12 04:00:54;;;;;;;6.80;4.55;;;;;;;18.45;38.02;101803.94;5004751;28;20035;-45
2022/03/12 04:03:20;;;;;;;7.50;5.47;;;;;;;18.45;38.02;101801.31;4989951;28;20030;-46
2022/03/12 04:05:46;;;;;;;6.60;5.00;;;;;;;18.44;38.06;101803.13;4989844;28;20084;-41
2022/03/12 04:08:12;;;;;;;6.45;4.90;;;;;;;18.43;37.99;101804.09;4989622;28;20045;-44
2022/03/12 04:10:39;;;;;;;6.88;4.75;;;;;;;18.43;37.97;101801.47;4990281;28;20482;-43
2022/03/12 04:13:12;;;;;;;5.20;4.63;;;;;;;18.41;38.01;101798.19;5004280;28;20061;-48
2022/03/12 04:15:39;;;;;;;4.50;3.63;;;;;;;18.41;37.87;101802.66;4989856;28;20031;-44
2022/03/12 04:18:05;;;;;;;6.90;4.88;;;;;;;18.39;38.05;101794.06;4989512;28;20042;-47
2022/03/12 04:20:31;;;;;;;6.35;4.85;;;;;;;18.38;37.97;101801.16;4989658;28;20135;-43
2022/03/12 04:22:57;;;;;;;4.35;3.80;;;;;;;18.37;37.87;101790.75;4989702;28;20027;-47
2022/03/12 04:25:23;;;;;;;6.90;5.28;;;;;;;18.37;37.81;101788.13;4988961;28;20145;-42
2022/03/12 04:27:49;;;;;;;5.82;4.47;;;;;;;18.38;37.76;101792.41;4989123;28;20030;-47
2022/03/12 04:30:20;;;;;;;6.47;4.25;;;;;;;18.41;37.74;101794.72;4989265;28;20037;-46
2022/03/12 04:32:46;;;;;;;4.35;3.60;;;;;;;18.41;37.83;101795.56;4989573;28;20034;-40
2022/03/12 04:35:13;;;;;;;5.45;4.45;;;;;;;18.43;37.66;101798.81;4987775;28;20026;-44
2022/03/12 04:37:39;;;;;;;4.80;4.15;;;;;;;18.43;37.84;101800.66;4989012;28;20034;-47
2022/03/12 04:40:10;;;;;;;6.57;4.00;;;;;;;18.45;37.67;101814.50;4988946;28;20560;-48
2022/03/12 04:42:40;;;;;;;6.55;4.25;;;;;;;18.44;37.79;101799.66;4988984;28;20038;-45
2022/03/12 04:45:07;;;;;;;5.40;4.10;;;;;;;18.45;37.54;101796.03;4989234;28;20035;-43
2022/03/12 04:47:34;;;;;;;3.88;3.45;;;;;;;18.44;37.49;101792.56;4988838;28;20041;-45
2022/03/12 04:50:02;;;;;;;8.18;4.55;;;;;;;18.45;37.64;101794.22;4988793;28;20026;-44
2022/03/12 04:52:29;;;;;;;5.03;3.78;;;;;;;18.44;37.53;101786.47;4989164;28;20537;-44
2022/03/12 04:54:56;;;;;;;4.63;3.75;;;;;;;18.44;37.56;101791.72;5003640;28;20042;-48
2022/03/12 04:57:22;;;;;;;4.60;4.03;;;;;;;18.41;37.64;101792.91;4988867;28;20073;-47
2022/03/12 04:59:47;;;;;;;5.70;4.05;;;;;;;18.40;37.65;101783.34;4988556;28;20438;-43
2022/03/12 05:02:13;;;;;;;5.35;4.22;;;;;;;18.38;37.66;101787.97;4988836;28;20494;-43
2022/03/12 05:04:38;;;;;;;4.32;3.33;;;;;;;18.36;37.65;101778.56;4988828;28;20022;-43
2022/03/12 05:07:08;;;;;;;3.53;3.08;;;;;;;18.33;37.61;101784.97;4988838;28;20069;-46
2022/03/12 05:09:34;;;;;;;5.18;3.78;;;;;;;18.32;37.69;101782.50;5003272;28;20033;-47
2022/03/12 05:12:01;;;;;;;4.85;3.55;;;;;;;18.31;37.75;101786.13;4988411;28;20394;-42
2022/03/12 05:14:26;;;;;;;5.47;3.83;;;;;;;18.30;37.75;101776.56;4988384;28;20402;-46
2022/03/12 05:16:52;;;;;;;4.90;4.05;;;;;;;18.28;37.79;101782.00;4988617;28;20027;-47
2022/03/12 05:19:18;;;;;;;4.93;3.85;;;;;;;18.28;37.87;101783.81;4988609;28;20398;-45
2022/03/12 05:21:44;;;;;;;4.93;3.55;;;;;;;18.27;37.64;101792.72;4988662;28;20398;-45
2022/03/12 05:24:10;;;;;;;3.85;3.50;;;;;;;18.23;37.67;101785.13;4988198;28;20045;-44
2022/03/12 05:26:35;;;;;;;7.20;3.78;;;;;;;18.23;37.71;101790.41;4988431;28;20481;-41
2022/03/12 05:29:01;;;;;;;4.10;3.22;;;;;;;18.22;37.77;101793.22;4988373;28;20119;-44
2022/03/12 05:31:26;;;;;;;4.72;3.85;;;;;;;18.21;37.76;101802.94;4988035;28;20557;-49
2022/03/12 05:33:52;;;;;;;4.20;3.80;;;;;;;18.22;37.91;101798.47;4988329;28;20727;-46
2022/03/12 05:36:17;;;;;;;5.30;3.75;;;;;;;18.22;37.74;101793.22;4988281;28;20405;-41
2022/03/12 05:38:43;;;;;;;4.60;3.58;;;;;;;18.23;37.73;101810.69;4988074;28;20478;-50
2022/03/12 05:41:10;;;;;;;5.55;3.50;;;;;;;18.22;37.83;101795.84;4988149;28;20411;-47
2022/03/12 05:43:45;;;;;;;3.97;3.58;;;;;;;18.22;37.64;101809.84;4987936;28;20174;-46
2022/03/12 05:46:14;;;;;;;5.80;3.93;;;;;;;18.21;37.70;101812.66;5002895;28;20361;-45
2022/03/12 05:48:41;;;;;;;4.20;3.80;;;;;;;18.21;37.73;101812.66;4986693;28;20277;-45
2022/03/12 05:51:09;;;;;;;4.50;3.42;;;;;;;18.19;37.66;101810.19;4987788;28;20113;-47
2022/03/12 05:53:35;;;;;;;5.00;3.45;;;;;;;18.19;37.59;101820.72;4987719;28;20030;-42
2022/03/12 05:56:01;;;;;;;4.88;3.90;;;;;;;18.20;37.58;101813.66;4987750;28;20117;-44
2022/03/12 05:58:26;;;;;;;4.35;3.83;;;;;;;18.18;37.62;101827.00;4987647;28;20118;-45
2022/03/12 06:00:54;;;;;;;4.38;3.47;;;;;;;18.17;37.54;101835.06;4987854;28;20500;-45
2022/03/12 06:03:21;;;;;;;3.92;2.92;;;;;;;18.15;37.57;101832.59;4988104;28;20381;-44
2022/03/12 06:05:54;;;;;;;5.28;3.75;;;;;;;18.13;37.50;101831.09;4987904;28;20054;-45
2022/03/12 06:08:22;;;;;;;4.25;3.28;;;;;;;18.12;37.24;101827.63;4987856;28;20427;-47
2022/03/12 06:10:54;;;;;;;3.90;3.10;;;;;;;18.12;37.36;101835.53;4986076;28;20038;-42
2022/03/12 06:13:23;;;;;;;5.22;3.40;;;;;;;18.15;37.35;101837.03;4986879;28;20073;-43
2022/03/12 06:15:55;;;;;;;4.22;2.85;;;;;;;18.18;37.41;101839.34;5002424;28;20038;-50
2022/03/12 06:18:23;;;;;;;2.75;2.40;;;;;;;18.18;37.29;101837.53;4987742;28;20034;-43
2022/03/12 06:20:49;;;;;;;3.50;2.90;;;;;;;18.21;37.45;101837.22;4987851;28;20077;-41
2022/03/12 06:23:14;;;;;;;3.83;3.22;;;;;;;18.24;37.34;101842.19;4987852;28;20392;-44
2022/03/12 06:25:40;;;;;;;4.22;3.10;;;;;;;18.27;37.24;101834.94;4987601;28;20018;-46
2022/03/12 06:28:05;;;;;;;3.55;3.08;;;;;;;18.31;37.33;101850.28;4987581;28;20061;-42
2022/03/12 06:30:31;;;;;;;3.20;2.88;;;;;;;18.36;37.33;101842.72;4987389;28;20474;-41
2022/03/12 06:32:57;;;;;;;4.80;3.58;;;;;;;18.41;37.28;101840.41;4987634;28;20061;-47
2022/03/12 06:35:25;;;;;;;5.72;3.42;;;;;;;18.45;37.35;101836.44;4987453;28;20049;-42
2022/03/12 06:37:50;;;;;;;5.50;2.97;;;;;;;18.51;37.27;101837.59;4987820;28;20138;-41
2022/03/12 06:40:17;;;;;;;4.57;3.08;;;;;;;18.57;37.20;101844.88;4987406;28;20102;-47
2022/03/12 06:42:45;;;;;;;3.78;2.85;;;;;;;18.62;37.19;101841.78;5002151;28;20486;-46
2022/03/12 06:45:15;;;;;;;5.13;3.03;;;;;;;18.69;37.11;101846.22;4987366;28;20022;-45
2022/03/12 06:47:42;;;;;;;3.05;2.35;;;;;;;18.78;37.20;101853.19;5002199;28;20045;-43
2022/03/12 06:50:11;;;;;;;3.33;2.97;;;;;;;18.85;36.99;101854.16;5004677;28;20072;-45
2022/03/12 06:52:40;;;;;;;5.45;3.35;;;;;;;18.95;36.97;101863.72;5005827;28;20093;-45
2022/03/12 06:55:08;;;;;;;3.53;2.67;;;;;;;19.01;36.85;101860.41;5005874;28;20089;-44
2022/03/12 06:57:33;;;;;;;3.58;2.75;;;;;;;19.08;36.90;101866.69;4990916;28;20048;-43
2022/03/12 06:59:59;;;;;;;4.10;3.05;;;;;;;19.12;36.93;101865.38;4991426;28;20026;-42
2022/03/12 07:02:24;;;;;;;4.25;2.92;;;;;;;19.16;36.70;101862.22;4991483;28;20041;-44
2022/03/12 07:04:51;;;;;;;3.58;2.47;;;;;;;19.21;36.65;101869.66;4991116;28;20121;-48
2022/03/12 07:07:17;;;;;;;3.58;2.65;;;;;;;19.26;36.84;101872.63;5005640;28;20041;-44
2022/03/12 07:09:42;;;;;;;4.22;2.38;;;;;;;19.32;36.74;101871.13;4990741;28;20410;-40
2022/03/12 07:12:08;;;;;;;5.47;2.60;;;;;;;19.35;36.72;101879.56;4990735;28;20096;-45
2022/03/12 07:14:36;;;;;;;3.47;2.63;;;;;;;19.39;36.85;101880.84;4990690;28;20172;-44
2022/03/12 07:17:01;;;;;;;3.38;2.28;;;;;;;19.43;36.93;101878.69;4990513;28;20022;-43
2022/03/12 07:19:27;;;;;;;3.67;2.78;;;;;;;19.46;36.87;101883.63;4990524;28;20031;-46
2022/03/12 07:21:52;;;;;;;3.30;2.80;;;;;;;19.48;36.73;101879.84;4990465;28;20026;-44
2022/03/12 07:24:18;;;;;;;3.80;2.40;;;;;;;19.51;36.77;101884.00;4990670;28;20132;-38
2022/03/12 07:26:45;;;;;;;4.28;3.00;;;;;;;19.57;36.62;101874.56;4990462;28;20047;-46
2022/03/12 07:29:11;;;;;;;3.17;2.28;;;;;;;19.61;36.49;101878.53;4990479;28;20030;-42
2022/03/12 07:31:37;;;;;;;3.22;2.13;;;;;;;19.62;36.82;101880.16;5005392;28;20034;-44
2022/03/12 07:34:03;;;;;;;3.45;2.50;;;;;;;19.67;36.67;101880.50;4990353;28;20037;-44
2022/03/12 07:36:29;;;;;;;4.70;2.42;;;;;;;19.71;36.89;101882.63;4990280;28;20050;-45
2022/03/12 07:38:56;;;;;;;3.90;2.55;;;;;;;19.74;36.67;101887.56;4990213;28;20042;-42
2022/03/12 07:41:21;;;;;;;2.63;2.30;;;;;;;19.77;36.67;101883.78;5005456;28;20125;-38
2022/03/12 07:43:47;;;;;;;3.63;2.10;;;;;;;19.80;36.50;101886.91;4990288;28;20123;-40
2022/03/12 07:46:12;;;;;;;3.00;2.50;;;;;;;19.84;36.52;101887.38;4990207;28;20489;-45
2022/03/12 07:48:38;;;;;;;3.00;2.20;;;;;;;19.87;36.49;101884.38;4990264;28;20027;-43
2022/03/12 07:51:03;;;;;;;3.10;2.50;;;;;;;19.89;36.68;101891.13;4988596;28;20061;-45
2022/03/12 07:53:30;;;;;;;4.43;2.38;;;;;;;19.95;36.42;101894.94;4990422;28;20027;-44
2022/03/12 07:55:55;;;;;;;2.70;1.77;;;;;;;19.98;36.45;101901.69;4990397;28;20047;-42
2022/03/12 07:58:21;;;;;;;2.78;2.03;;;;;;;20.00;36.54;101897.88;4990478;28;20125;-41
2022/03/12 08:00:47;;;;;;;4.32;1.85;;;;;;;20.04;36.51;101906.31;4988923;28;20030;-40
2022/03/12 08:03:13;;;;;;;9.27;2.72;;;;;;;20.05;36.36;101906.13;4990108;28;20045;-44
2022/03/12 08:05:38;;;;;;;2.08;1.85;;;;;;;20.08;36.37;101905.78;5004588;28;20031;-43
2022/03/12 08:08:04;;;;;;;2.88;1.98;;;;;;;20.09;36.32;101902.16;4989848;28;20410;-44
2022/03/12 08:11:24;;;;;;;4.82;2.10;;;;;;;20.09;36.29;101907.44;4990019;28;20032;-43
2022/03/12 08:13:15;;;;;;;4.47;2.40;;;;;;;20.06;36.73;101910.44;4989550;28;20054;-42
2022/03/12 08:15:41;;;;;;;8.15;2.25;;;;;;;20.07;36.88;101912.06;4988980;28;20018;-44
2022/03/12 08:18:06;;;;;;;5.55;2.10;;;;;;;20.08;37.04;101910.25;4990114;28;20050;-49
2022/03/12 08:20:32;;;;;;;5.43;1.83;;;;;;;20.03;37.55;101907.28;4990249;28;20120;-45
2022/03/12 08:22:57;;;;;;;3.72;2.00;;;;;;;20.01;37.74;101899.53;4989484;28;20079;-41
2022/03/12 08:25:22;;;;;;;7.80;2.85;;;;;;;20.10;38.19;101909.09;5012998;28;20537;-50
2022/03/12 08:27:48;;;;;;;6.00;2.72;;;;;;;20.21;38.98;101911.34;4989862;28;20041;-55
2022/03/12 08:30:14;;;;;;;7.28;2.10;;;;;;;20.17;39.76;101914.53;4988685;28;20046;-42
2022/03/12 08:32:41;;;;;;;8.68;2.30;;;;;;;20.09;40.13;101912.72;4997533;28;20129;-49
2022/03/12 08:35:09;;;;;;;5.28;1.73;;;;;;;20.02;40.26;101906.47;4988340;28;20080;-45
2022/03/12 08:37:34;;;;;;;8.32;1.92;;;;;;;19.96;40.50;101901.88;4986528;28;20058;-52
2022/03/12 08:40:04;;;;;;;2.70;1.85;;;;;;;19.92;40.36;101899.72;4987815;28;20268;-48
2022/03/12 08:42:30;;;;;;;2.47;1.42;;;;;;;19.88;40.27;101905.34;4988111;28;20525;-49
2022/03/12 08:44:55;;;;;;;3.50;1.80;;;;;;;19.87;40.28;101908.16;4987031;28;20030;-55
2022/03/12 08:47:21;;;;;;;2.95;1.85;;;;;;;19.84;40.35;101913.84;4987734;28;20033;-45
2022/03/12 08:49:46;;;;;;;7.05;1.83;;;;;;;19.82;40.39;101918.47;4988295;28;20042;-45
2022/03/12 08:52:12;;;;;;;4.30;1.38;;;;;;;19.80;40.35;101918.63;4987365;28;20023;-47
2022/03/12 08:54:37;;;;;;;10.40;2.15;;;;;;;19.77;40.13;101913.69;4986286;28;20030;-44
2022/03/12 08:57:05;;;;;;;5.40;1.60;;;;;;;19.76;39.86;101917.31;4988322;28;20360;-40
2022/03/12 08:59:30;;;;;;;3.75;1.40;;;;;;;19.78;39.85;101911.88;4988153;28;20037;-44
2022/03/12 09:01:56;;;;;;;3.70;1.52;;;;;;;19.77;39.52;101911.03;4987456;28;20031;-44
2022/03/12 09:04:22;;;;;;;2.83;1.73;;;;;;;19.79;39.40;101918.81;4987225;28;20469;-42
2022/03/12 09:06:48;;;;;;;3.95;1.20;;;;;;;19.79;39.22;101916.16;5003122;28;20030;-42
2022/03/12 09:09:13;;;;;;;4.60;1.70;;;;;;;19.79;39.16;101916.97;4987635;28;20053;-44
2022/03/12 09:11:39;;;;;;;6.10;1.45;;;;;;;19.78;39.01;101917.97;4985480;28;20442;-42
2022/03/12 09:14:05;;;;;;;2.20;1.02;;;;;;;19.77;38.93;101921.63;4988117;28;20058;-43
2022/03/12 09:16:30;;;;;;;2.72;1.02;;;;;;;19.76;38.97;101911.22;4987301;28;20120;-46
2022/03/12 09:18:56;;;;;;;3.20;1.52;;;;;;;19.75;38.71;101917.50;4988079;28;20096;-44
2022/03/12 09:21:22;;;;;;;2.75;1.40;;;;;;;19.73;38.72;101917.66;4987443;28;20030;-44
2022/03/12 09:23:47;;;;;;;3.58;1.42;;;;;;;19.73;38.74;101916.84;4979498;28;20513;-41
2022/03/12 09:26:14;;;;;;;3.20;1.45;;;;;;;19.70;39.15;101923.28;4988298;28;20037;-48
2022/03/12 09:28:39;;;;;;;4.68;1.42;;;;;;;19.71;39.15;101913.53;4988024;28;20041;-39
2022/03/12 09:31:06;;;;;;;5.30;1.42;;;;;;;19.69;40.05;101913.69;4983334;28;20382;-37
2022/03/12 09:33:32;;;;;;;16.33;3.05;;;;;;;19.66;40.69;101903.47;4986666;28;20114;-47
2022/03/12 09:35:57;;;;;;;7.97;1.60;;;;;;;19.64;40.15;101908.09;4988807;28;20573;-42
2022/03/12 09:38:24;;;;;;;17.55;2.97;;;;;;;19.62;39.70;101920.66;4988773;28;20038;-40
2022/03/12 09:40:50;;;;;;;17.13;2.28;;;;;;;19.62;39.61;101915.38;4986863;28;20038;-42
2022/03/12 09:43:16;;;;;;;13.57;2.00;;;;;;;19.58;39.21;101908.75;4988496;28;20508;-44
2022/03/12 09:45:41;;;;;;;13.10;2.60;;;;;;;19.54;39.18;101907.44;5003704;28;20034;-42
2022/03/12 09:48:08;;;;;;;11.07;1.92;;;;;;;19.51;39.26;101905.13;4988532;28;20032;-42
2022/03/12 09:50:33;;;;;;;6.05;2.45;;;;;;;19.44;37.81;101902.31;4985845;28;20553;-43
2022/03/12 09:52:59;;;;;;;9.80;2.50;;;;;;;19.41;37.68;101902.63;4988491;28;20126;-47
2022/03/12 09:55:25;;;;;;;8.00;2.65;;;;;;;19.39;37.01;101898.50;4987970;28;20045;-47
2022/03/12 09:57:51;;;;;;;7.10;2.88;;;;;;;19.35;36.97;101908.63;4983172;28;20077;-41
2022/03/12 10:00:18;;;;;;;9.45;1.95;;;;;;;19.34;36.51;101896.41;4984509;28;20129;-49
2022/03/12 10:02:43;;;;;;;5.00;2.13;;;;;;;19.35;36.33;101897.22;4968919;28;20034;-45
2022/03/12 10:05:11;;;;;;;8.05;2.83;;;;;;;19.32;35.57;101893.09;4974354;28;20636;-49
2022/03/12 10:07:37;;;;;;;7.82;2.40;;;;;;;19.34;35.27;101892.94;4987198;28;20101;-45
2022/03/12 10:10:03;;;;;;;10.93;3.15;;;;;;;19.34;35.05;101890.28;4988159;28;20297;-40
2022/03/12 10:12:29;;;;;;;7.07;2.40;;;;;;;19.34;35.17;101885.81;4987720;28;20054;-45
2022/03/12 10:14:55;;;;;;;10.55;2.70;;;;;;;19.35;35.09;101887.47;4987954;28;20101;-40
2022/03/12 10:17:20;;;;;;;7.18;2.10;;;;;;;19.35;35.27;101887.47;4984496;28;20018;-46
2022/03/12 10:19:46;;;;;;;12.77;2.92;;;;;;;19.33;35.48;101892.09;4986257;28;20057;-49
2022/03/12 10:22:14;;;;;;;6.75;2.05;;;;;;;19.30;35.76;101883.69;4998085;28;20641;-42
2022/03/12 10:24:40;;;;;;;9.40;2.97;;;;;;;19.26;35.94;101880.56;4986531;28;20026;-43
2022/03/12 10:27:06;;;;;;;5.75;2.50;;;;;;;19.22;36.09;101874.78;4983230;28;20108;-44
2022/03/12 10:29:34;;;;;;;5.57;2.53;;;;;;;19.21;36.21;101873.13;4986655;28;20030;-41
2022/03/12 10:32:00;;;;;;;6.63;2.47;;;;;;;19.20;36.40;101873.28;4982538;28;20469;-44
2022/03/12 10:34:26;;;;;;;4.88;2.33;;;;;;;19.19;36.61;101874.28;4986492;28;20408;-42
2022/03/12 10:36:59;;;;;;;8.88;2.83;;;;;;;19.16;36.74;101870.16;4987500;28;20032;-40
2022/03/12 10:39:33;;;;;;;8.23;2.50;;;;;;;19.14;36.84;101863.38;4985576;28;20133;-39
2022/03/12 10:42:01;;;;;;;2.72;1.88;;;;;;;19.14;36.83;101868.66;5001074;28;20117;-46
2022/03/12 10:44:39;;;;;;;8.20;2.67;;;;;;;19.11;36.84;101871.63;4986042;28;20062;-41
2022/03/12 10:47:19;;;;;;;7.03;1.98;;;;;;;19.08;36.79;101867.50;4987126;28;20637;-42
2022/03/12 10:50:00;;;;;;;5.60;2.38;;;;;;;19.06;37.08;101856.28;4985191;28;20482;-43
2022/03/12 10:52:31;;;;;;;8.68;2.38;;;;;;;19.08;37.29;101858.75;4987068;28;20109;-39
2022/03/12 10:55:07;;;;;;;4.65;1.88;;;;;;;19.06;37.14;101844.91;4987251;28;20349;-42
2022/03/12 10:57:33;;;;;;;5.88;2.20;;;;;;;19.04;37.19;101838.94;5001450;28;20096;-41
2022/03/12 10:59:59;;;;;;;5.20;2.38;;;;;;;19.04;37.15;101841.59;4986725;28;20046;-47
2022/03/12 11:02:24;;;;;;;5.10;2.28;;;;;;;19.03;37.17;101839.94;5001126;28;20053;-43
2022/03/12 11:04:50;;;;;;;2.88;2.25;;;;;;;19.02;37.19;101833.84;4986598;28;20030;-41
2022/03/12 11:07:25;;;;;;;4.10;2.20;;;;;;;19.00;36.92;101829.72;4987119;28;20062;-37
2022/03/12 11:09:54;;;;;;;4.40;2.13;;;;;;;19.01;36.89;101837.47;4986641;28;20031;-48
2022/03/12 11:12:30;;;;;;;4.97;2.15;;;;;;;18.98;36.97;101824.59;4986639;28;20069;-43
2022/03/12 11:15:05;;;;;;;3.97;2.05;;;;;;;18.99;36.77;101831.53;4985169;28;20278;-43
2022/03/12 11:17:45;;;;;;;2.35;1.63;;;;;;;18.97;36.80;101830.03;4980295;28;20133;-43
2022/03/12 11:20:25;;;;;;;2.28;1.55;;;;;;;18.99;36.44;101828.88;4983255;28;20146;-45
2022/03/12 11:23:05;;;;;;;3.67;1.85;;;;;;;19.00;36.39;101835.00;4966376;28;20034;-43